Luke Burton — WDF4886 — position and weather

sailwx.info

Track history (hours):
 
Tides and Currents Weather Stations Pressure Air Temp Water Temp Dewpoint Dewpoint Depression Visibility Wind Speed Wind Dir Waves Ship Positions

Luke Burton

Owner: Canal Barge Company, Inc., Belle Chasse, LA. More information available from US FCC via Universal Licensing System and Coast Guard Vessel Documentation Center.

Last reported at 2018-May-09 23:53 UTC. Time now 2018-Jul-18 12:16 UTC.
Position N 39°13' W 090°36'.
Warning: this ship's position is months out of date.

Length 44 m; draft 3 m.

Type: Towing. MMSI: 367456880.

Date/timePositionNaut miles runAvg speedWind from/ knotsBaromVisibWave heightAir tempDewpointWater temp
2018-May-09 23:53N 39°13' W 090°36'2 4.2
2018-May-09 23:30N 39°11' W 090°36'2 4.4
2018-May-09 23:00N 39°09' W 090°37'2 4.6
2018-May-09 22:30N 39°07' W 090°36'31 2.2
2018-May-09 08:24N 38°43' W 090°10'1 2.2
2018-May-09 08:00N 38°42' W 090°11'0 0.9
2018-May-09 07:29N 38°42' W 090°11'0 0.5
2018-May-09 06:57N 38°42' W 090°11'0 0.7
2018-May-09 06:30N 38°42' W 090°11'6 1.2
2018-May-09 01:25N 38°35' W 090°12'  
2018-May-02 17:04N 38°37' W 090°11'1 7.4
2018-May-02 16:59N 38°38' W 090°11'4 7.6
2018-May-02 16:29N 38°41' W 090°11'1 1.6
2018-May-02 16:00N 38°42' W 090°11'3 1.1
2018-May-02 13:29N 38°45' W 090°09'2 3.5
2018-May-02 13:00N 38°46' W 090°08'2 3.7
2018-May-02 12:30N 38°48' W 090°07'3 6.9
2018-May-02 12:00N 38°51' W 090°07'2 3.8
2018-May-02 11:30N 38°52' W 090°09'0 0.4
2018-May-02 11:00N 38°52' W 090°09'2 4.9
2018-May-02 10:30N 38°54' W 090°12'2 3.3
2018-May-02 10:00N 38°55' W 090°13'0 0.0
2018-May-02 09:30N 38°55' W 090°13'0 0.0
2018-May-02 09:00N 38°55' W 090°13'0 0.0
2018-May-02 08:30N 38°55' W 090°13'0 0.0
2018-May-02 08:00N 38°55' W 090°13'0 0.0
2018-May-02 07:30N 38°55' W 090°13'0 0.0
2018-May-02 07:00N 38°55' W 090°13'1 2.4
2018-May-02 06:30N 38°55' W 090°15'3 5.3
2018-May-02 06:00N 38°55' W 090°18'3 5.4
2018-May-02 05:30N 38°57' W 090°21'3 5.5
2018-May-02 05:00N 38°58' W 090°25'3 5.4
2018-May-02 04:29N 38°58' W 090°28'2 4.1
2018-May-02 04:00N 38°57' W 090°31'2 3.6
2018-May-02 03:30N 38°58' W 090°33'2 4.2
2018-May-02 03:00N 38°60' W 090°34'2 4.0
2018-May-02 02:30N 39°02' W 090°34'2 3.3
2018-May-02 01:56N 39°03' W 090°35'1 3.4
2018-May-02 01:30N 39°05' W 090°35'2 4.0
2018-May-02 01:00N 39°07' W 090°36'2 4.0
2018-May-02 00:30N 39°09' W 090°37'2 4.0
2018-May-02 00:00N 39°11' W 090°36'  
Track history (hours):
 
Tides and Currents Weather Stations Pressure Air Temp Water Temp Dewpoint Dewpoint Depression Visibility Wind Speed Wind Dir Waves Ship Positions

Luke Burton

Owner: Canal Barge Company, Inc., Belle Chasse, LA. More information available from US FCC via Universal Licensing System and Coast Guard Vessel Documentation Center.

Last reported at 2018-May-09 23:53 UTC. Time now 2018-Jul-18 12:16 UTC.
Position N 39°13' W 090°36'.
Warning: this ship's position is months out of date.

Length 44 m; draft 3 m.

Type: Towing. MMSI: 367456880.

Date/timePositionNaut miles runAvg speedWind from/ knotsBaromVisibWave heightAir tempDewpointWater temp
2018-May-09 23:53N 39°13' W 090°36'2 4.2
2018-May-09 23:30N 39°11' W 090°36'2 4.4
2018-May-09 23:00N 39°09' W 090°37'2 4.6
2018-May-09 22:30N 39°07' W 090°36'31 2.2
2018-May-09 08:24N 38°43' W 090°10'1 2.2
2018-May-09 08:00N 38°42' W 090°11'0 0.9
2018-May-09 07:29N 38°42' W 090°11'0 0.5
2018-May-09 06:57N 38°42' W 090°11'0 0.7
2018-May-09 06:30N 38°42' W 090°11'6 1.2
2018-May-09 01:25N 38°35' W 090°12'  
2018-May-02 17:04N 38°37' W 090°11'1 7.4
2018-May-02 16:59N 38°38' W 090°11'4 7.6
2018-May-02 16:29N 38°41' W 090°11'1 1.6
2018-May-02 16:00N 38°42' W 090°11'3 1.1
2018-May-02 13:29N 38°45' W 090°09'2 3.5
2018-May-02 13:00N 38°46' W 090°08'2 3.7
2018-May-02 12:30N 38°48' W 090°07'3 6.9
2018-May-02 12:00N 38°51' W 090°07'2 3.8
2018-May-02 11:30N 38°52' W 090°09'0 0.4
2018-May-02 11:00N 38°52' W 090°09'2 4.9
2018-May-02 10:30N 38°54' W 090°12'2 3.3
2018-May-02 10:00N 38°55' W 090°13'0 0.0
2018-May-02 09:30N 38°55' W 090°13'0 0.0
2018-May-02 09:00N 38°55' W 090°13'0 0.0
2018-May-02 08:30N 38°55' W 090°13'0 0.0
2018-May-02 08:00N 38°55' W 090°13'0 0.0
2018-May-02 07:30N 38°55' W 090°13'0 0.0
2018-May-02 07:00N 38°55' W 090°13'1 2.4
2018-May-02 06:30N 38°55' W 090°15'3 5.3
2018-May-02 06:00N 38°55' W 090°18'3 5.4
2018-May-02 05:30N 38°57' W 090°21'3 5.5
2018-May-02 05:00N 38°58' W 090°25'3 5.4
2018-May-02 04:29N 38°58' W 090°28'2 4.1
2018-May-02 04:00N 38°57' W 090°31'2 3.6
2018-May-02 03:30N 38°58' W 090°33'2 4.2
2018-May-02 03:00N 38°60' W 090°34'2 4.0
2018-May-02 02:30N 39°02' W 090°34'2 3.3
2018-May-02 01:56N 39°03' W 090°35'1 3.4
2018-May-02 01:30N 39°05' W 090°35'2 4.0
2018-May-02 01:00N 39°07' W 090°36'2 4.0
2018-May-02 00:30N 39°09' W 090°37'2 4.0
2018-May-02 00:00N 39°11' W 090°36'  

Dump ship's entire track history